sensor_id;sensor_type;location;lat;lon;timestamp;P1;durP1;ratioP1;P2;durP2;ratioP2
8333;SDS011;4204;43.004;23.052;2022-11-20T00:00:53;4.53;;;2.37;;
8333;SDS011;4204;43.004;23.052;2022-11-20T00:03:21;4.87;;;2.03;;
8333;SDS011;4204;43.004;23.052;2022-11-20T00:05:49;4.17;;;2.53;;
8333;SDS011;4204;43.004;23.052;2022-11-20T00:08:16;5.17;;;2.33;;
8333;SDS011;4204;43.004;23.052;2022-11-20T00:10:44;3.87;;;2.40;;
8333;SDS011;4204;43.004;23.052;2022-11-20T00:13:13;3.60;;;2.13;;
8333;SDS011;4204;43.004;23.052;2022-11-20T00:15:41;4.33;;;1.83;;
8333;SDS011;4204;43.004;23.052;2022-11-20T00:18:08;3.37;;;2.30;;
8333;SDS011;4204;43.004;23.052;2022-11-20T00:20:36;3.87;;;2.13;;
8333;SDS011;4204;43.004;23.052;2022-11-20T00:23:04;3.40;;;2.03;;
8333;SDS011;4204;43.004;23.052;2022-11-20T00:25:33;5.93;;;2.50;;
8333;SDS011;4204;43.004;23.052;2022-11-20T00:28:01;3.37;;;2.07;;
8333;SDS011;4204;43.004;23.052;2022-11-20T00:30:30;4.17;;;1.80;;
8333;SDS011;4204;43.004;23.052;2022-11-20T00:32:58;4.07;;;1.97;;
8333;SDS011;4204;43.004;23.052;2022-11-20T00:35:26;3.23;;;2.00;;
8333;SDS011;4204;43.004;23.052;2022-11-20T00:37:53;2.70;;;1.67;;
8333;SDS011;4204;43.004;23.052;2022-11-20T00:40:21;2.90;;;2.30;;
8333;SDS011;4204;43.004;23.052;2022-11-20T00:42:49;4.43;;;2.27;;
8333;SDS011;4204;43.004;23.052;2022-11-20T00:45:16;4.33;;;2.43;;
8333;SDS011;4204;43.004;23.052;2022-11-20T00:47:45;2.33;;;1.90;;
8333;SDS011;4204;43.004;23.052;2022-11-20T00:50:13;3.87;;;2.00;;
8333;SDS011;4204;43.004;23.052;2022-11-20T00:52:41;4.30;;;1.90;;
8333;SDS011;4204;43.004;23.052;2022-11-20T00:55:08;4.27;;;2.23;;
8333;SDS011;4204;43.004;23.052;2022-11-20T00:57:36;2.73;;;1.70;;
8333;SDS011;4204;43.004;23.052;2022-11-20T01:00:04;3.87;;;2.00;;
8333;SDS011;4204;43.004;23.052;2022-11-20T01:02:33;2.67;;;1.80;;
8333;SDS011;4204;43.004;23.052;2022-11-20T01:05:02;4.90;;;2.00;;
8333;SDS011;4204;43.004;23.052;2022-11-20T01:07:31;3.17;;;1.60;;
8333;SDS011;4204;43.004;23.052;2022-11-20T01:09:59;2.03;;;1.80;;
8333;SDS011;4204;43.004;23.052;2022-11-20T01:12:27;5.83;;;2.03;;
8333;SDS011;4204;43.004;23.052;2022-11-20T01:14:54;2.23;;;1.70;;
8333;SDS011;4204;43.004;23.052;2022-11-20T01:17:22;2.80;;;1.97;;
8333;SDS011;4204;43.004;23.052;2022-11-20T01:19:50;2.70;;;1.60;;
8333;SDS011;4204;43.004;23.052;2022-11-20T01:22:19;2.20;;;1.83;;
8333;SDS011;4204;43.004;23.052;2022-11-20T01:24:47;3.87;;;1.90;;
8333;SDS011;4204;43.004;23.052;2022-11-20T01:27:14;1.90;;;1.53;;
8333;SDS011;4204;43.004;23.052;2022-11-20T01:29:42;2.43;;;1.83;;
8333;SDS011;4204;43.004;23.052;2022-11-20T01:32:09;2.10;;;1.77;;
8333;SDS011;4204;43.004;23.052;2022-11-20T01:34:37;3.27;;;1.80;;
8333;SDS011;4204;43.004;23.052;2022-11-20T01:37:05;4.00;;;2.27;;
8333;SDS011;4204;43.004;23.052;2022-11-20T01:39:34;6.60;;;2.03;;
8333;SDS011;4204;43.004;23.052;2022-11-20T01:42:02;3.07;;;2.17;;
8333;SDS011;4204;43.004;23.052;2022-11-20T01:44:48;1.97;;;1.77;;
8333;SDS011;4204;43.004;23.052;2022-11-20T01:47:20;3.77;;;1.90;;
8333;SDS011;4204;43.004;23.052;2022-11-20T01:49:54;2.77;;;1.80;;
8333;SDS011;4204;43.004;23.052;2022-11-20T01:52:26;4.10;;;1.80;;
8333;SDS011;4204;43.004;23.052;2022-11-20T01:55:01;3.17;;;1.80;;
8333;SDS011;4204;43.004;23.052;2022-11-20T01:57:32;3.40;;;2.00;;
8333;SDS011;4204;43.004;23.052;2022-11-20T02:00:04;7.07;;;1.83;;
8333;SDS011;4204;43.004;23.052;2022-11-20T02:02:40;2.47;;;1.40;;
8333;SDS011;4204;43.004;23.052;2022-11-20T02:05:14;5.20;;;1.70;;
8333;SDS011;4204;43.004;23.052;2022-11-20T02:07:49;4.00;;;1.90;;
8333;SDS011;4204;43.004;23.052;2022-11-20T02:10:19;4.93;;;1.93;;
8333;SDS011;4204;43.004;23.052;2022-11-20T02:12:47;4.00;;;1.73;;
8333;SDS011;4204;43.004;23.052;2022-11-20T02:15:33;2.37;;;1.60;;
8333;SDS011;4204;43.004;23.052;2022-11-20T02:18:01;5.93;;;1.90;;
8333;SDS011;4204;43.004;23.052;2022-11-20T02:20:29;2.43;;;1.80;;
8333;SDS011;4204;43.004;23.052;2022-11-20T02:22:57;2.40;;;1.50;;
8333;SDS011;4204;43.004;23.052;2022-11-20T02:25:30;3.07;;;1.53;;
8333;SDS011;4204;43.004;23.052;2022-11-20T02:28:00;5.60;;;2.10;;
8333;SDS011;4204;43.004;23.052;2022-11-20T02:30:29;4.23;;;1.93;;
8333;SDS011;4204;43.004;23.052;2022-11-20T02:32:57;3.07;;;1.80;;
8333;SDS011;4204;43.004;23.052;2022-11-20T02:35:41;2.70;;;1.90;;
8333;SDS011;4204;43.004;23.052;2022-11-20T02:38:11;3.10;;;1.93;;
8333;SDS011;4204;43.004;23.052;2022-11-20T02:40:41;4.00;;;2.03;;
8333;SDS011;4204;43.004;23.052;2022-11-20T02:43:09;4.83;;;2.20;;
8333;SDS011;4204;43.004;23.052;2022-11-20T02:45:37;5.07;;;1.90;;
8333;SDS011;4204;43.004;23.052;2022-11-20T02:48:05;2.87;;;1.83;;
8333;SDS011;4204;43.004;23.052;2022-11-20T02:50:35;5.03;;;2.30;;
8333;SDS011;4204;43.004;23.052;2022-11-20T02:53:04;4.03;;;2.27;;
8333;SDS011;4204;43.004;23.052;2022-11-20T02:55:32;3.80;;;2.03;;
8333;SDS011;4204;43.004;23.052;2022-11-20T02:58:01;4.83;;;2.33;;
8333;SDS011;4204;43.004;23.052;2022-11-20T03:00:29;6.80;;;2.20;;
8333;SDS011;4204;43.004;23.052;2022-11-20T03:02:57;3.87;;;2.40;;
8333;SDS011;4204;43.004;23.052;2022-11-20T03:05:25;3.30;;;2.13;;
8333;SDS011;4204;43.004;23.052;2022-11-20T03:07:53;4.07;;;2.27;;
8333;SDS011;4204;43.004;23.052;2022-11-20T03:10:21;7.37;;;2.30;;
8333;SDS011;4204;43.004;23.052;2022-11-20T03:12:52;2.70;;;2.20;;
8333;SDS011;4204;43.004;23.052;2022-11-20T03:15:22;2.77;;;2.10;;
8333;SDS011;4204;43.004;23.052;2022-11-20T03:17:53;2.57;;;2.10;;
8333;SDS011;4204;43.004;23.052;2022-11-20T03:20:21;3.77;;;2.23;;
8333;SDS011;4204;43.004;23.052;2022-11-20T03:22:50;6.73;;;2.20;;
8333;SDS011;4204;43.004;23.052;2022-11-20T03:25:17;6.07;;;2.20;;
8333;SDS011;4204;43.004;23.052;2022-11-20T03:27:45;4.10;;;2.13;;
8333;SDS011;4204;43.004;23.052;2022-11-20T03:30:13;2.93;;;2.43;;
8333;SDS011;4204;43.004;23.052;2022-11-20T03:32:44;4.43;;;2.80;;
8333;SDS011;4204;43.004;23.052;2022-11-20T03:35:12;3.67;;;2.60;;
8333;SDS011;4204;43.004;23.052;2022-11-20T03:37:39;5.80;;;2.50;;
8333;SDS011;4204;43.004;23.052;2022-11-20T03:40:08;2.93;;;2.13;;
8333;SDS011;4204;43.004;23.052;2022-11-20T03:42:36;5.27;;;2.40;;
8333;SDS011;4204;43.004;23.052;2022-11-20T03:45:16;3.73;;;2.50;;
8333;SDS011;4204;43.004;23.052;2022-11-20T03:47:46;2.60;;;2.40;;
8333;SDS011;4204;43.004;23.052;2022-11-20T03:50:14;4.67;;;2.40;;
8333;SDS011;4204;43.004;23.052;2022-11-20T03:52:41;3.40;;;2.10;;
8333;SDS011;4204;43.004;23.052;2022-11-20T03:55:09;5.57;;;2.50;;
8333;SDS011;4204;43.004;23.052;2022-11-20T03:57:37;4.13;;;2.33;;
8333;SDS011;4204;43.004;23.052;2022-11-20T04:00:05;4.57;;;2.20;;
8333;SDS011;4204;43.004;23.052;2022-11-20T04:02:33;2.57;;;2.37;;
8333;SDS011;4204;43.004;23.052;2022-11-20T04:05:03;4.23;;;2.40;;
8333;SDS011;4204;43.004;23.052;2022-11-20T04:07:33;2.80;;;2.50;;
8333;SDS011;4204;43.004;23.052;2022-11-20T04:10:01;2.40;;;2.00;;
8333;SDS011;4204;43.004;23.052;2022-11-20T04:12:31;5.57;;;2.50;;
8333;SDS011;4204;43.004;23.052;2022-11-20T04:14:59;4.27;;;2.20;;
8333;SDS011;4204;43.004;23.052;2022-11-20T04:17:27;2.87;;;1.67;;
8333;SDS011;4204;43.004;23.052;2022-11-20T04:19:55;2.20;;;1.70;;
8333;SDS011;4204;43.004;23.052;2022-11-20T04:22:24;1.90;;;1.67;;
8333;SDS011;4204;43.004;23.052;2022-11-20T04:24:52;4.63;;;1.87;;
8333;SDS011;4204;43.004;23.052;2022-11-20T04:27:20;2.90;;;2.30;;
8333;SDS011;4204;43.004;23.052;2022-11-20T04:29:47;2.33;;;1.80;;
8333;SDS011;4204;43.004;23.052;2022-11-20T04:32:15;6.03;;;2.20;;
8333;SDS011;4204;43.004;23.052;2022-11-20T04:34:42;2.73;;;2.37;;
8333;SDS011;4204;43.004;23.052;2022-11-20T04:37:10;7.33;;;2.20;;
8333;SDS011;4204;43.004;23.052;2022-11-20T04:39:39;2.37;;;2.00;;
8333;SDS011;4204;43.004;23.052;2022-11-20T04:42:08;6.27;;;2.87;;
8333;SDS011;4204;43.004;23.052;2022-11-20T04:44:53;4.87;;;3.20;;
8333;SDS011;4204;43.004;23.052;2022-11-20T04:47:20;4.90;;;3.57;;
8333;SDS011;4204;43.004;23.052;2022-11-20T04:49:48;8.97;;;3.70;;
8333;SDS011;4204;43.004;23.052;2022-11-20T04:52:16;4.80;;;2.77;;
8333;SDS011;4204;43.004;23.052;2022-11-20T04:54:45;2.50;;;2.30;;
8333;SDS011;4204;43.004;23.052;2022-11-20T04:57:13;3.17;;;2.20;;
8333;SDS011;4204;43.004;23.052;2022-11-20T04:59:41;4.70;;;2.23;;
8333;SDS011;4204;43.004;23.052;2022-11-20T05:02:09;2.30;;;2.10;;
8333;SDS011;4204;43.004;23.052;2022-11-20T05:04:37;3.10;;;2.80;;
8333;SDS011;4204;43.004;23.052;2022-11-20T05:07:05;6.63;;;2.50;;
8333;SDS011;4204;43.004;23.052;2022-11-20T05:09:33;8.37;;;6.63;;
8333;SDS011;4204;43.004;23.052;2022-11-20T05:12:02;4.63;;;2.83;;
8333;SDS011;4204;43.004;23.052;2022-11-20T05:14:30;2.33;;;2.13;;
8333;SDS011;4204;43.004;23.052;2022-11-20T05:16:57;3.63;;;2.37;;
8333;SDS011;4204;43.004;23.052;2022-11-20T05:19:25;4.00;;;3.07;;
8333;SDS011;4204;43.004;23.052;2022-11-20T05:21:53;5.23;;;4.47;;
8333;SDS011;4204;43.004;23.052;2022-11-20T05:24:20;3.43;;;3.13;;
8333;SDS011;4204;43.004;23.052;2022-11-20T05:26:48;3.80;;;3.43;;
8333;SDS011;4204;43.004;23.052;2022-11-20T05:29:17;5.57;;;4.43;;
8333;SDS011;4204;43.004;23.052;2022-11-20T05:31:45;8.43;;;5.83;;
8333;SDS011;4204;43.004;23.052;2022-11-20T05:34:13;7.93;;;3.80;;
8333;SDS011;4204;43.004;23.052;2022-11-20T05:36:40;9.10;;;5.00;;
8333;SDS011;4204;43.004;23.052;2022-11-20T05:39:08;3.37;;;3.07;;
8333;SDS011;4204;43.004;23.052;2022-11-20T05:41:36;3.17;;;2.63;;
8333;SDS011;4204;43.004;23.052;2022-11-20T05:44:04;2.57;;;2.37;;
8333;SDS011;4204;43.004;23.052;2022-11-20T05:46:33;4.93;;;4.03;;
8333;SDS011;4204;43.004;23.052;2022-11-20T05:49:00;4.47;;;3.00;;
8333;SDS011;4204;43.004;23.052;2022-11-20T05:51:28;15.70;;;14.30;;
8333;SDS011;4204;43.004;23.052;2022-11-20T05:53:56;24.67;;;20.37;;
8333;SDS011;4204;43.004;23.052;2022-11-20T05:56:24;7.43;;;4.40;;
8333;SDS011;4204;43.004;23.052;2022-11-20T05:58:52;6.23;;;3.43;;
8333;SDS011;4204;43.004;23.052;2022-11-20T06:01:21;2.53;;;1.97;;
8333;SDS011;4204;43.004;23.052;2022-11-20T06:03:52;3.30;;;2.20;;
8333;SDS011;4204;43.004;23.052;2022-11-20T06:06:20;2.63;;;2.40;;
8333;SDS011;4204;43.004;23.052;2022-11-20T06:08:48;4.13;;;3.10;;
8333;SDS011;4204;43.004;23.052;2022-11-20T06:11:16;6.60;;;4.80;;
8333;SDS011;4204;43.004;23.052;2022-11-20T06:13:44;9.10;;;5.00;;
8333;SDS011;4204;43.004;23.052;2022-11-20T06:16:14;7.77;;;5.23;;
8333;SDS011;4204;43.004;23.052;2022-11-20T06:18:43;6.80;;;4.80;;
8333;SDS011;4204;43.004;23.052;2022-11-20T06:21:13;7.03;;;4.97;;
8333;SDS011;4204;43.004;23.052;2022-11-20T06:23:42;6.63;;;4.07;;
8333;SDS011;4204;43.004;23.052;2022-11-20T06:26:12;2.87;;;2.27;;
8333;SDS011;4204;43.004;23.052;2022-11-20T06:28:40;2.37;;;2.00;;
8333;SDS011;4204;43.004;23.052;2022-11-20T06:31:09;2.10;;;1.90;;
8333;SDS011;4204;43.004;23.052;2022-11-20T06:33:38;2.23;;;1.80;;
8333;SDS011;4204;43.004;23.052;2022-11-20T06:36:06;1.63;;;1.53;;
8333;SDS011;4204;43.004;23.052;2022-11-20T06:38:35;2.00;;;1.80;;
8333;SDS011;4204;43.004;23.052;2022-11-20T06:41:03;20.90;;;17.83;;
8333;SDS011;4204;43.004;23.052;2022-11-20T06:43:31;42.47;;;35.23;;
8333;SDS011;4204;43.004;23.052;2022-11-20T06:45:59;27.97;;;23.43;;
8333;SDS011;4204;43.004;23.052;2022-11-20T06:48:27;19.97;;;17.07;;
8333;SDS011;4204;43.004;23.052;2022-11-20T06:50:56;21.00;;;17.97;;
8333;SDS011;4204;43.004;23.052;2022-11-20T06:53:24;36.87;;;29.17;;
8333;SDS011;4204;43.004;23.052;2022-11-20T06:55:56;42.77;;;36.20;;
8333;SDS011;4204;43.004;23.052;2022-11-20T06:58:25;18.40;;;15.03;;
8333;SDS011;4204;43.004;23.052;2022-11-20T07:00:57;17.03;;;12.00;;
8333;SDS011;4204;43.004;23.052;2022-11-20T07:03:26;27.30;;;24.30;;
8333;SDS011;4204;43.004;23.052;2022-11-20T07:05:54;14.87;;;13.00;;
8333;SDS011;4204;43.004;23.052;2022-11-20T07:08:22;18.53;;;15.53;;
8333;SDS011;4204;43.004;23.052;2022-11-20T07:10:50;22.47;;;20.07;;
8333;SDS011;4204;43.004;23.052;2022-11-20T07:13:19;14.90;;;12.50;;
8333;SDS011;4204;43.004;23.052;2022-11-20T07:15:47;13.17;;;10.80;;
8333;SDS011;4204;43.004;23.052;2022-11-20T07:18:14;11.10;;;9.97;;
8333;SDS011;4204;43.004;23.052;2022-11-20T07:20:42;9.70;;;8.70;;
8333;SDS011;4204;43.004;23.052;2022-11-20T07:23:10;9.20;;;6.50;;
8333;SDS011;4204;43.004;23.052;2022-11-20T07:25:37;8.30;;;6.70;;
8333;SDS011;4204;43.004;23.052;2022-11-20T07:28:05;6.03;;;4.97;;
8333;SDS011;4204;43.004;23.052;2022-11-20T07:30:34;3.70;;;3.17;;
8333;SDS011;4204;43.004;23.052;2022-11-20T07:33:02;2.87;;;2.47;;
8333;SDS011;4204;43.004;23.052;2022-11-20T07:35:30;4.07;;;2.70;;
8333;SDS011;4204;43.004;23.052;2022-11-20T07:37:58;2.30;;;2.10;;
8333;SDS011;4204;43.004;23.052;2022-11-20T07:40:25;2.60;;;2.10;;
8333;SDS011;4204;43.004;23.052;2022-11-20T07:42:54;3.33;;;1.97;;
8333;SDS011;4204;43.004;23.052;2022-11-20T07:45:22;2.23;;;1.93;;
8333;SDS011;4204;43.004;23.052;2022-11-20T07:47:52;1.70;;;1.47;;
8333;SDS011;4204;43.004;23.052;2022-11-20T07:50:20;2.13;;;1.60;;
8333;SDS011;4204;43.004;23.052;2022-11-20T07:52:49;1.70;;;1.60;;
8333;SDS011;4204;43.004;23.052;2022-11-20T07:55:18;1.70;;;1.60;;
8333;SDS011;4204;43.004;23.052;2022-11-20T07:57:46;6.00;;;5.47;;
8333;SDS011;4204;43.004;23.052;2022-11-20T08:00:21;5.27;;;4.77;;
8333;SDS011;4204;43.004;23.052;2022-11-20T08:02:49;17.93;;;15.97;;
8333;SDS011;4204;43.004;23.052;2022-11-20T08:05:18;5.40;;;4.50;;
8333;SDS011;4204;43.004;23.052;2022-11-20T08:07:46;113.97;;;62.07;;
8333;SDS011;4204;43.004;23.052;2022-11-20T08:10:14;173.53;;;91.90;;
8333;SDS011;4204;43.004;23.052;2022-11-20T08:12:46;50.77;;;32.17;;
8333;SDS011;4204;43.004;23.052;2022-11-20T08:15:33;23.83;;;17.93;;
8333;SDS011;4204;43.004;23.052;2022-11-20T08:18:01;15.93;;;13.00;;
8333;SDS011;4204;43.004;23.052;2022-11-20T08:20:32;37.50;;;24.40;;
8333;SDS011;4204;43.004;23.052;2022-11-20T08:23:00;33.20;;;21.57;;
8333;SDS011;4204;43.004;23.052;2022-11-20T08:25:31;26.47;;;18.43;;
8333;SDS011;4204;43.004;23.052;2022-11-20T08:28:00;20.47;;;15.50;;
8333;SDS011;4204;43.004;23.052;2022-11-20T08:30:29;34.33;;;22.83;;
8333;SDS011;4204;43.004;23.052;2022-11-20T08:33:00;24.87;;;17.20;;
8333;SDS011;4204;43.004;23.052;2022-11-20T08:35:33;14.43;;;11.93;;
8333;SDS011;4204;43.004;23.052;2022-11-20T08:38:02;14.37;;;10.07;;
8333;SDS011;4204;43.004;23.052;2022-11-20T08:40:30;11.03;;;8.10;;
8333;SDS011;4204;43.004;23.052;2022-11-20T08:43:00;5.43;;;4.30;;
8333;SDS011;4204;43.004;23.052;2022-11-20T08:45:28;15.60;;;10.90;;
8333;SDS011;4204;43.004;23.052;2022-11-20T08:47:59;17.17;;;12.73;;
8333;SDS011;4204;43.004;23.052;2022-11-20T08:50:27;13.70;;;11.37;;
8333;SDS011;4204;43.004;23.052;2022-11-20T08:53:03;12.80;;;10.67;;
8333;SDS011;4204;43.004;23.052;2022-11-20T08:55:31;9.77;;;6.63;;
8333;SDS011;4204;43.004;23.052;2022-11-20T08:58:02;9.03;;;6.47;;
8333;SDS011;4204;43.004;23.052;2022-11-20T09:00:30;7.90;;;4.03;;
8333;SDS011;4204;43.004;23.052;2022-11-20T09:02:58;18.30;;;15.27;;
8333;SDS011;4204;43.004;23.052;2022-11-20T09:05:27;20.10;;;14.87;;
8333;SDS011;4204;43.004;23.052;2022-11-20T09:07:55;16.47;;;12.80;;
8333;SDS011;4204;43.004;23.052;2022-11-20T09:10:25;15.50;;;10.20;;
8333;SDS011;4204;43.004;23.052;2022-11-20T09:12:52;9.30;;;5.73;;
8333;SDS011;4204;43.004;23.052;2022-11-20T09:15:21;5.10;;;3.13;;
8333;SDS011;4204;43.004;23.052;2022-11-20T09:17:52;3.40;;;3.10;;
8333;SDS011;4204;43.004;23.052;2022-11-20T09:20:20;4.47;;;3.00;;
8333;SDS011;4204;43.004;23.052;2022-11-20T09:22:48;7.70;;;4.57;;
8333;SDS011;4204;43.004;23.052;2022-11-20T09:25:16;12.60;;;8.47;;
8333;SDS011;4204;43.004;23.052;2022-11-20T09:27:45;15.47;;;10.40;;
8333;SDS011;4204;43.004;23.052;2022-11-20T09:30:13;5.60;;;4.57;;
8333;SDS011;4204;43.004;23.052;2022-11-20T09:32:42;5.77;;;3.47;;
8333;SDS011;4204;43.004;23.052;2022-11-20T09:35:10;3.73;;;2.60;;
8333;SDS011;4204;43.004;23.052;2022-11-20T09:37:38;7.63;;;3.93;;
8333;SDS011;4204;43.004;23.052;2022-11-20T09:40:06;13.43;;;10.10;;
8333;SDS011;4204;43.004;23.052;2022-11-20T09:42:46;6.03;;;4.90;;
8333;SDS011;4204;43.004;23.052;2022-11-20T09:45:21;6.27;;;4.00;;
8333;SDS011;4204;43.004;23.052;2022-11-20T09:47:59;3.83;;;2.90;;
8333;SDS011;4204;43.004;23.052;2022-11-20T09:50:43;5.23;;;2.43;;
8333;SDS011;4204;43.004;23.052;2022-11-20T09:53:20;8.47;;;5.80;;
8333;SDS011;4204;43.004;23.052;2022-11-20T09:55:53;15.77;;;10.63;;
8333;SDS011;4204;43.004;23.052;2022-11-20T09:58:27;5.97;;;3.73;;
8333;SDS011;4204;43.004;23.052;2022-11-20T10:01:03;6.00;;;3.43;;
8333;SDS011;4204;43.004;23.052;2022-11-20T10:03:39;7.47;;;4.73;;
8333;SDS011;4204;43.004;23.052;2022-11-20T10:06:16;6.97;;;6.27;;
8333;SDS011;4204;43.004;23.052;2022-11-20T10:08:47;7.17;;;4.37;;
8333;SDS011;4204;43.004;23.052;2022-11-20T10:11:23;6.73;;;5.20;;
8333;SDS011;4204;43.004;23.052;2022-11-20T10:14:00;5.87;;;4.27;;
8333;SDS011;4204;43.004;23.052;2022-11-20T10:16:40;8.27;;;3.40;;
8333;SDS011;4204;43.004;23.052;2022-11-20T10:22:16;8.47;;;2.97;;
8333;SDS011;4204;43.004;23.052;2022-11-20T10:24:55;4.87;;;3.07;;
8333;SDS011;4204;43.004;23.052;2022-11-20T10:27:31;8.53;;;6.53;;
8333;SDS011;4204;43.004;23.052;2022-11-20T10:30:14;3.80;;;3.37;;
8333;SDS011;4204;43.004;23.052;2022-11-20T10:32:44;5.27;;;3.30;;
8333;SDS011;4204;43.004;23.052;2022-11-20T10:35:16;5.33;;;2.60;;
8333;SDS011;4204;43.004;23.052;2022-11-20T10:37:50;3.40;;;2.60;;
8333;SDS011;4204;43.004;23.052;2022-11-20T10:40:23;4.07;;;2.03;;
8333;SDS011;4204;43.004;23.052;2022-11-20T10:42:57;5.47;;;2.70;;
8333;SDS011;4204;43.004;23.052;2022-11-20T10:45:35;6.77;;;2.13;;
8333;SDS011;4204;43.004;23.052;2022-11-20T10:48:10;2.27;;;1.90;;
8333;SDS011;4204;43.004;23.052;2022-11-20T10:50:46;3.23;;;2.43;;
8333;SDS011;4204;43.004;23.052;2022-11-20T10:53:31;3.50;;;2.10;;
8333;SDS011;4204;43.004;23.052;2022-11-20T10:56:17;3.40;;;2.00;;
8333;SDS011;4204;43.004;23.052;2022-11-20T10:58:51;3.40;;;2.23;;
8333;SDS011;4204;43.004;23.052;2022-11-20T11:01:29;4.80;;;2.40;;
8333;SDS011;4204;43.004;23.052;2022-11-20T11:03:56;2.90;;;2.60;;
8333;SDS011;4204;43.004;23.052;2022-11-20T11:06:28;2.93;;;2.50;;
8333;SDS011;4204;43.004;23.052;2022-11-20T11:09:02;3.17;;;2.33;;
8333;SDS011;4204;43.004;23.052;2022-11-20T11:11:39;5.37;;;2.20;;
8333;SDS011;4204;43.004;23.052;2022-11-20T11:14:07;6.50;;;1.93;;
8333;SDS011;4204;43.004;23.052;2022-11-20T11:16:48;2.33;;;2.13;;
8333;SDS011;4204;43.004;23.052;2022-11-20T11:19:17;5.40;;;2.60;;
8333;SDS011;4204;43.004;23.052;2022-11-20T11:21:45;7.47;;;5.40;;
8333;SDS011;4204;43.004;23.052;2022-11-20T11:24:19;6.03;;;4.33;;
8333;SDS011;4204;43.004;23.052;2022-11-20T11:26:52;7.23;;;4.30;;
8333;SDS011;4204;43.004;23.052;2022-11-20T11:29:24;5.60;;;3.80;;
8333;SDS011;4204;43.004;23.052;2022-11-20T11:32:04;4.63;;;3.13;;
8333;SDS011;4204;43.004;23.052;2022-11-20T11:34:32;7.33;;;4.57;;
8333;SDS011;4204;43.004;23.052;2022-11-20T11:37:00;8.20;;;5.10;;
8333;SDS011;4204;43.004;23.052;2022-11-20T11:39:30;4.57;;;3.60;;
8333;SDS011;4204;43.004;23.052;2022-11-20T11:42:00;4.73;;;3.23;;
8333;SDS011;4204;43.004;23.052;2022-11-20T11:44:30;4.77;;;3.50;;
8333;SDS011;4204;43.004;23.052;2022-11-20T11:47:21;8.53;;;5.33;;
8333;SDS011;4204;43.004;23.052;2022-11-20T11:50:00;9.13;;;5.67;;
8333;SDS011;4204;43.004;23.052;2022-11-20T11:52:29;3.80;;;2.90;;
8333;SDS011;4204;43.004;23.052;2022-11-20T11:55:03;11.33;;;6.90;;
8333;SDS011;4204;43.004;23.052;2022-11-20T11:57:37;8.00;;;5.13;;
8333;SDS011;4204;43.004;23.052;2022-11-20T12:00:14;5.73;;;3.37;;
8333;SDS011;4204;43.004;23.052;2022-11-20T12:02:49;8.07;;;4.03;;
8333;SDS011;4204;43.004;23.052;2022-11-20T12:05:25;5.33;;;4.83;;
8333;SDS011;4204;43.004;23.052;2022-11-20T12:07:56;13.87;;;11.63;;
8333;SDS011;4204;43.004;23.052;2022-11-20T12:10:34;13.33;;;9.83;;
8333;SDS011;4204;43.004;23.052;2022-11-20T12:13:14;5.13;;;4.60;;
8333;SDS011;4204;43.004;23.052;2022-11-20T12:15:48;8.53;;;5.47;;
8333;SDS011;4204;43.004;23.052;2022-11-20T12:18:18;3.20;;;1.70;;
8333;SDS011;4204;43.004;23.052;2022-11-20T12:20:53;3.00;;;2.07;;
8333;SDS011;4204;43.004;23.052;2022-11-20T12:23:28;6.10;;;2.60;;
8333;SDS011;4204;43.004;23.052;2022-11-20T12:26:03;4.10;;;2.70;;
8333;SDS011;4204;43.004;23.052;2022-11-20T12:28:41;3.00;;;2.50;;
8333;SDS011;4204;43.004;23.052;2022-11-20T12:31:24;4.67;;;3.50;;
8333;SDS011;4204;43.004;23.052;2022-11-20T12:34:12;5.40;;;2.47;;
8333;SDS011;4204;43.004;23.052;2022-11-20T12:36:58;4.17;;;1.70;;
8333;SDS011;4204;43.004;23.052;2022-11-20T12:39:35;2.13;;;1.50;;
8333;SDS011;4204;43.004;23.052;2022-11-20T12:42:23;2.27;;;2.00;;
8333;SDS011;4204;43.004;23.052;2022-11-20T12:45:38;4.67;;;2.80;;
8333;SDS011;4204;43.004;23.052;2022-11-20T12:54:29;5.30;;;2.93;;
8333;SDS011;4204;43.004;23.052;2022-11-20T12:57:16;5.87;;;2.70;;
8333;SDS011;4204;43.004;23.052;2022-11-20T12:59:52;4.50;;;2.17;;
8333;SDS011;4204;43.004;23.052;2022-11-20T13:02:58;3.40;;;1.50;;
8333;SDS011;4204;43.004;23.052;2022-11-20T13:05:43;2.87;;;2.13;;
8333;SDS011;4204;43.004;23.052;2022-11-20T13:08:19;5.33;;;3.40;;
8333;SDS011;4204;43.004;23.052;2022-11-20T13:10:53;5.07;;;3.57;;
8333;SDS011;4204;43.004;23.052;2022-11-20T13:13:29;7.60;;;4.70;;
8333;SDS011;4204;43.004;23.052;2022-11-20T13:16:08;8.60;;;7.67;;
8333;SDS011;4204;43.004;23.052;2022-11-20T13:18:41;18.97;;;12.57;;
8333;SDS011;4204;43.004;23.052;2022-11-20T13:21:15;4.93;;;4.13;;
8333;SDS011;4204;43.004;23.052;2022-11-20T13:23:44;4.67;;;3.37;;
8333;SDS011;4204;43.004;23.052;2022-11-20T13:26:17;14.73;;;10.03;;
8333;SDS011;4204;43.004;23.052;2022-11-20T13:28:48;12.43;;;8.13;;
8333;SDS011;4204;43.004;23.052;2022-11-20T13:31:39;10.60;;;7.77;;
8333;SDS011;4204;43.004;23.052;2022-11-20T13:34:11;11.83;;;7.83;;
8333;SDS011;4204;43.004;23.052;2022-11-20T13:36:48;11.07;;;7.83;;
8333;SDS011;4204;43.004;23.052;2022-11-20T13:39:23;11.10;;;8.13;;
8333;SDS011;4204;43.004;23.052;2022-11-20T13:41:55;12.33;;;7.57;;
8333;SDS011;4204;43.004;23.052;2022-11-20T13:44:24;11.77;;;7.80;;
8333;SDS011;4204;43.004;23.052;2022-11-20T13:46:56;23.70;;;17.10;;
8333;SDS011;4204;43.004;23.052;2022-11-20T13:49:25;14.07;;;10.60;;
8333;SDS011;4204;43.004;23.052;2022-11-20T13:51:58;13.57;;;8.70;;
8333;SDS011;4204;43.004;23.052;2022-11-20T13:57:37;24.40;;;15.40;;
8333;SDS011;4204;43.004;23.052;2022-11-20T14:00:15;10.30;;;7.13;;
8333;SDS011;4204;43.004;23.052;2022-11-20T14:02:44;8.70;;;5.87;;
8333;SDS011;4204;43.004;23.052;2022-11-20T14:05:24;8.13;;;6.13;;
8333;SDS011;4204;43.004;23.052;2022-11-20T14:07:52;9.00;;;6.37;;
8333;SDS011;4204;43.004;23.052;2022-11-20T14:10:23;7.63;;;6.23;;
8333;SDS011;4204;43.004;23.052;2022-11-20T14:12:54;10.00;;;7.93;;
8333;SDS011;4204;43.004;23.052;2022-11-20T14:15:26;15.00;;;10.37;;
8333;SDS011;4204;43.004;23.052;2022-11-20T14:17:56;12.63;;;9.80;;
8333;SDS011;4204;43.004;23.052;2022-11-20T14:20:25;11.53;;;9.43;;
8333;SDS011;4204;43.004;23.052;2022-11-20T14:22:57;12.70;;;9.00;;
8333;SDS011;4204;43.004;23.052;2022-11-20T14:25:25;10.57;;;7.67;;
8333;SDS011;4204;43.004;23.052;2022-11-20T14:27:56;17.20;;;14.60;;
8333;SDS011;4204;43.004;23.052;2022-11-20T14:30:26;20.30;;;16.60;;
8333;SDS011;4204;43.004;23.052;2022-11-20T14:32:55;26.77;;;19.97;;
8333;SDS011;4204;43.004;23.052;2022-11-20T14:35:28;25.37;;;22.07;;
8333;SDS011;4204;43.004;23.052;2022-11-20T14:37:58;19.50;;;17.40;;
8333;SDS011;4204;43.004;23.052;2022-11-20T14:40:30;22.40;;;18.50;;
8333;SDS011;4204;43.004;23.052;2022-11-20T14:43:14;18.13;;;14.53;;
8333;SDS011;4204;43.004;23.052;2022-11-20T14:45:46;13.47;;;10.97;;
8333;SDS011;4204;43.004;23.052;2022-11-20T14:48:23;31.87;;;23.47;;
8333;SDS011;4204;43.004;23.052;2022-11-20T14:50:56;44.03;;;30.80;;
8333;SDS011;4204;43.004;23.052;2022-11-20T14:53:24;18.37;;;14.13;;
8333;SDS011;4204;43.004;23.052;2022-11-20T14:55:56;13.60;;;11.20;;
8333;SDS011;4204;43.004;23.052;2022-11-20T14:58:28;19.70;;;15.00;;
8333;SDS011;4204;43.004;23.052;2022-11-20T15:00:58;23.70;;;17.40;;
8333;SDS011;4204;43.004;23.052;2022-11-20T15:03:30;13.83;;;9.33;;
8333;SDS011;4204;43.004;23.052;2022-11-20T15:06:00;11.43;;;7.30;;
8333;SDS011;4204;43.004;23.052;2022-11-20T15:08:29;5.53;;;4.80;;
8333;SDS011;4204;43.004;23.052;2022-11-20T15:10:56;6.57;;;4.40;;
8333;SDS011;4204;43.004;23.052;2022-11-20T15:13:29;5.03;;;3.97;;
8333;SDS011;4204;43.004;23.052;2022-11-20T15:15:59;4.27;;;2.97;;
8333;SDS011;4204;43.004;23.052;2022-11-20T15:18:29;4.10;;;3.10;;
8333;SDS011;4204;43.004;23.052;2022-11-20T15:21:07;8.37;;;7.10;;
8333;SDS011;4204;43.004;23.052;2022-11-20T15:23:39;13.60;;;10.57;;
8333;SDS011;4204;43.004;23.052;2022-11-20T15:26:07;11.10;;;8.60;;
8333;SDS011;4204;43.004;23.052;2022-11-20T15:28:39;16.13;;;11.93;;
8333;SDS011;4204;43.004;23.052;2022-11-20T15:31:09;30.10;;;22.40;;